createdAt,value
2018-04-02T00:01:15.402Z,26.90
2018-04-02T00:03:42.952Z,29.33
2018-04-02T00:06:10.475Z,30.30
2018-04-02T00:08:38.050Z,31.90
2018-04-02T00:11:06.337Z,30.17
2018-04-02T00:13:38.813Z,29.77
2018-04-02T00:16:10.915Z,29.37
2018-04-02T00:18:38.703Z,29.50
2018-04-02T00:21:06.236Z,28.93
2018-04-02T00:23:34.589Z,30.27
2018-04-02T00:26:02.135Z,27.27
2018-04-02T00:28:30.428Z,28.77
2018-04-02T00:30:57.959Z,30.60
2018-04-02T00:33:25.488Z,29.57
2018-04-02T00:35:53.348Z,29.13
2018-04-02T00:38:21.488Z,29.00
2018-04-02T00:40:49.016Z,28.03
2018-04-02T00:43:16.546Z,28.67
2018-04-02T00:45:44.094Z,27.33
2018-04-02T00:48:11.631Z,29.00
2018-04-02T00:50:43.537Z,29.83
2018-04-02T00:53:11.052Z,29.57
2018-04-02T00:55:39.255Z,29.40
2018-04-02T00:58:08.070Z,30.43
2018-04-02T01:00:36.181Z,31.53
2018-04-02T01:03:04.488Z,28.57
2018-04-02T01:05:32.000Z,30.20
2018-04-02T01:08:00.764Z,28.57
2018-04-02T01:20:13.354Z,28.43
2018-04-02T01:22:40.874Z,32.27
2018-04-02T01:25:09.311Z,32.00
2018-04-02T01:27:37.841Z,32.23
2018-04-02T01:30:05.393Z,32.70
2018-04-02T01:32:32.956Z,35.00
2018-04-02T01:35:00.512Z,31.30
2018-04-02T01:37:28.026Z,31.27
2018-04-02T01:39:56.309Z,32.63
2018-04-02T01:42:25.332Z,31.57
2018-04-02T01:44:53.506Z,35.17
2018-04-02T01:47:21.050Z,32.60
2018-04-02T01:49:50.197Z,33.00
2018-04-02T01:52:17.718Z,33.23
2018-04-02T01:54:45.257Z,33.57
2018-04-02T01:57:17.905Z,31.53
2018-04-02T01:59:45.441Z,34.03
2018-04-02T02:02:13.569Z,35.40
2018-04-02T02:04:41.878Z,34.47
2018-04-02T02:07:09.413Z,35.07
2018-04-02T02:09:37.720Z,37.17
2018-04-02T02:12:05.244Z,35.43
2018-04-02T02:14:34.773Z,40.77
2018-04-02T02:17:02.311Z,38.73
2018-04-02T02:19:30.593Z,35.20
2018-04-02T02:21:59.218Z,33.70
2018-04-02T02:24:26.740Z,36.87
2018-04-02T02:26:55.856Z,39.37
2018-04-02T02:29:23.402Z,39.77
2018-04-02T02:31:54.949Z,36.73
2018-04-02T02:34:27.372Z,37.17
2018-04-02T02:36:55.172Z,35.17
2018-04-02T02:39:23.472Z,37.20
2018-04-02T02:41:51.827Z,36.40
2018-04-02T02:44:24.185Z,34.67
2018-04-02T02:46:59.855Z,36.40
2018-04-02T02:49:28.191Z,36.37
2018-04-02T02:51:55.746Z,38.77
2018-04-02T02:54:23.268Z,35.97
2018-04-02T02:56:50.790Z,34.10
2018-04-02T02:59:18.332Z,35.97
2018-04-02T03:01:45.859Z,35.97
2018-04-02T03:04:13.398Z,37.30
2018-04-02T03:06:42.626Z,35.20
2018-04-02T03:09:10.159Z,37.40
2018-04-02T03:11:37.685Z,36.07
2018-04-02T03:14:05.218Z,35.97
2018-04-02T03:16:36.633Z,37.10
2018-04-02T03:19:04.878Z,38.50
2018-04-02T03:21:32.702Z,33.57
2018-04-02T03:24:00.222Z,34.93
2018-04-02T03:26:31.182Z,36.03
2018-04-02T03:28:59.598Z,37.03
2018-04-02T03:31:27.122Z,39.70
2018-04-02T03:33:54.641Z,37.57
2018-04-02T03:36:27.285Z,35.23
2018-04-02T03:38:54.797Z,35.87
2018-04-02T03:41:23.123Z,35.27
2018-04-02T03:43:54.658Z,35.47
2018-04-02T03:46:22.529Z,35.50
2018-04-02T03:48:50.718Z,35.77
2018-04-02T03:51:18.239Z,38.07
2018-04-02T03:53:46.286Z,36.27
2018-04-02T03:56:13.835Z,36.33
2018-04-02T03:58:41.372Z,36.77
2018-04-02T04:01:08.908Z,34.47
2018-04-02T04:03:36.575Z,34.07
2018-04-02T04:06:05.917Z,35.90
2018-04-02T04:08:33.464Z,36.07
2018-04-02T04:11:01.020Z,35.10
2018-04-02T04:13:28.604Z,37.30
2018-04-02T04:15:56.320Z,36.07
2018-04-02T04:18:23.890Z,33.73
2018-04-02T04:20:52.209Z,32.77
2018-04-02T04:23:19.753Z,34.57
2018-04-02T04:25:47.277Z,34.77
2018-04-02T04:28:14.817Z,33.67
2018-04-02T04:30:46.263Z,36.90
2018-04-02T04:33:14.587Z,36.23
2018-04-02T04:35:42.110Z,37.67
2018-04-02T04:38:09.625Z,38.00
2018-04-02T04:40:37.157Z,36.93
2018-04-02T04:43:04.877Z,35.83
2018-04-02T04:45:33.160Z,35.23
2018-04-02T04:48:01.458Z,40.07
2018-04-02T04:50:29.509Z,40.27
2018-04-02T04:52:57.801Z,38.60
2018-04-02T04:55:30.508Z,38.13
2018-04-02T04:57:58.069Z,40.13
2018-04-02T05:00:26.108Z,36.60
2018-04-02T05:02:53.629Z,39.63
2018-04-02T05:05:21.175Z,37.37
2018-04-02T05:07:48.706Z,36.37
2018-04-02T05:10:16.246Z,40.27
2018-04-02T05:12:43.762Z,41.57
2018-04-02T05:15:11.347Z,39.70
2018-04-02T05:17:40.386Z,37.07
2018-04-02T05:20:08.219Z,38.03
2018-04-02T05:22:36.154Z,36.57
2018-04-02T05:25:03.678Z,42.27
2018-04-02T05:27:31.214Z,40.03
2018-04-02T05:29:58.727Z,39.70
2018-04-02T05:32:26.288Z,39.53
2018-04-02T05:34:53.803Z,38.37
2018-04-02T05:37:21.360Z,39.63
2018-04-02T05:39:48.895Z,37.73
2018-04-02T05:42:17.232Z,38.53
2018-04-02T05:44:44.743Z,38.03
2018-04-02T05:47:12.267Z,37.27
2018-04-02T05:49:43.758Z,35.93
2018-04-02T05:52:11.334Z,42.20
2018-04-02T05:54:43.373Z,39.97
2018-04-02T05:57:11.647Z,39.37
2018-04-02T05:59:40.953Z,38.37
2018-04-02T06:02:12.224Z,40.83
2018-04-02T06:04:39.745Z,40.67
2018-04-02T06:07:12.433Z,43.07
2018-04-02T06:09:40.741Z,38.57
2018-04-02T06:12:08.265Z,36.47
2018-04-02T06:14:40.714Z,38.63
2018-04-02T06:17:08.746Z,34.87
2018-04-02T06:19:36.264Z,35.00
2018-04-02T06:22:03.785Z,35.00
2018-04-02T06:34:21.728Z,33.03
2018-04-02T06:36:50.085Z,31.03
2018-04-02T06:39:18.154Z,30.27
2018-04-02T06:41:45.706Z,33.73
2018-04-02T06:44:13.251Z,33.70
2018-04-02T06:59:40.827Z,34.97
2018-04-02T07:02:08.964Z,35.40
2018-04-02T07:04:40.529Z,35.33
2018-04-02T07:20:08.088Z,36.70
2018-04-02T07:35:36.429Z,40.30
2018-04-02T07:38:04.801Z,38.87
2018-04-02T07:40:33.132Z,39.57
2018-04-02T07:43:00.682Z,40.23
2018-04-02T07:45:28.205Z,39.97
2018-04-02T07:47:55.747Z,40.87
2018-04-02T07:50:24.743Z,40.53
2018-04-02T07:52:57.031Z,40.73
2018-04-02T07:55:24.536Z,38.03
2018-04-02T07:57:52.086Z,38.53
2018-04-02T08:00:20.369Z,37.57
2018-04-02T08:02:51.969Z,38.27
2018-04-02T08:05:20.264Z,40.33
2018-04-02T08:07:48.614Z,39.97
2018-04-02T08:10:16.929Z,40.60
2018-04-02T08:12:44.445Z,38.43
2018-04-02T08:15:12.775Z,42.73
2018-04-02T08:17:40.314Z,41.70
2018-04-02T08:20:08.273Z,39.90
2018-04-02T08:22:36.399Z,44.27
2018-04-02T08:25:05.530Z,41.73
2018-04-02T08:27:34.147Z,40.67
2018-04-02T08:30:01.742Z,42.90
2018-04-02T08:32:29.269Z,43.60
2018-04-02T08:34:56.806Z,46.23
2018-04-02T08:37:24.402Z,44.17
2018-04-02T08:39:53.068Z,42.77
2018-04-02T08:42:20.612Z,42.63
2018-04-02T08:44:48.724Z,43.30
2018-04-02T08:47:17.090Z,48.50
2018-04-02T08:49:44.670Z,51.50
2018-04-02T08:52:12.295Z,50.70
2018-04-02T08:54:40.258Z,48.43
2018-04-02T08:57:08.389Z,42.23
2018-04-02T08:59:36.070Z,42.93
2018-04-02T09:02:08.376Z,40.97
2018-04-02T09:04:36.602Z,43.97
2018-04-02T09:07:08.151Z,41.47
2018-04-02T09:09:35.685Z,41.20
2018-04-02T09:12:03.924Z,40.87
2018-04-02T09:14:31.537Z,48.37
2018-04-02T09:19:09.282Z,53.23
2018-04-02T09:21:38.189Z,52.97
2018-04-02T09:24:06.315Z,54.20
2018-04-02T09:26:33.858Z,53.73
2018-04-02T09:29:02.653Z,53.20
2018-04-02T09:31:30.196Z,53.93
2018-04-02T09:33:57.737Z,55.43
2018-04-02T09:36:25.732Z,57.00
2018-04-02T09:38:53.262Z,58.67
2018-04-02T09:41:20.789Z,58.73
2018-04-02T09:43:48.352Z,56.20
2018-04-02T09:56:02.413Z,61.23
2018-04-02T09:58:29.948Z,62.10
2018-04-02T10:01:00.862Z,63.77
2018-04-02T10:03:39.025Z,62.47
2018-04-02T10:06:06.612Z,58.63
2018-04-02T10:08:34.412Z,60.87
2018-04-02T10:11:02.714Z,58.17
2018-04-02T10:13:30.238Z,62.17
2018-04-02T10:15:58.534Z,62.43
2018-04-02T10:18:26.399Z,61.97
2018-04-02T10:20:54.010Z,58.53
2018-04-02T10:23:21.578Z,58.90
2018-04-02T10:25:49.957Z,60.80
2018-04-02T10:28:17.526Z,58.67
2018-04-02T10:30:51.334Z,53.20
2018-04-02T10:33:18.886Z,55.97
2018-04-02T10:35:46.493Z,55.03
2018-04-02T10:51:14.117Z,48.03
2018-04-02T10:53:47.402Z,48.20
2018-04-02T10:56:14.905Z,47.57
2018-04-02T10:58:42.449Z,50.80
2018-04-02T11:01:10.767Z,46.10
2018-04-02T11:03:38.302Z,44.80
2018-04-02T11:06:05.861Z,41.53
2018-04-02T11:08:33.390Z,43.97
2018-04-02T11:11:01.705Z,40.50
2018-04-02T11:13:29.259Z,42.03
2018-04-02T11:15:56.806Z,39.83
2018-04-02T11:18:28.283Z,41.60
2018-04-02T11:20:55.856Z,39.93
2018-04-02T11:23:23.402Z,40.73
2018-04-02T11:25:50.958Z,41.50
2018-04-02T11:28:18.487Z,41.13
2018-04-02T11:30:46.858Z,42.07
2018-04-02T11:33:14.410Z,39.67
2018-04-02T11:35:41.994Z,37.83
2018-04-02T11:38:11.047Z,35.53
2018-04-02T11:40:39.393Z,37.07
2018-04-02T11:43:07.760Z,36.80
2018-04-02T11:45:35.294Z,35.73
2018-04-02T11:48:03.670Z,33.77
2018-04-02T11:50:32.139Z,34.27
2018-04-02T11:53:00.105Z,36.13
2018-04-02T11:55:28.414Z,34.70
2018-04-02T11:57:56.860Z,34.37
2018-04-02T12:00:24.525Z,34.00
2018-04-02T12:02:52.763Z,33.90
2018-04-02T12:05:20.750Z,34.20
2018-04-02T12:07:48.269Z,34.30
2018-04-02T12:10:16.565Z,30.07
2018-04-02T12:25:44.451Z,27.63
2018-04-02T12:28:12.611Z,26.60
2018-04-02T12:30:40.556Z,26.13
2018-04-02T12:33:08.725Z,25.40
2018-04-02T12:35:36.983Z,26.07
2018-04-02T12:38:05.303Z,24.77
2018-04-02T12:40:34.005Z,25.37
2018-04-02T12:43:02.282Z,25.17
2018-04-02T12:46:40.597Z,25.27
2018-04-02T12:49:08.401Z,26.87
2018-04-02T12:51:36.637Z,25.10
2018-04-02T12:54:04.242Z,27.60
2018-04-02T12:56:31.849Z,25.10
2018-04-02T12:59:00.323Z,25.17
2018-04-02T13:01:27.856Z,25.07
2018-04-02T13:03:56.594Z,29.53
2018-04-02T13:06:24.323Z,28.40
2018-04-02T13:08:51.857Z,28.73
2018-04-02T13:11:24.631Z,23.47
2018-04-02T13:13:52.171Z,24.43
2018-04-02T13:16:20.539Z,27.00
2018-04-02T13:18:48.077Z,27.67
2018-04-02T13:21:15.619Z,25.90
2018-04-02T13:23:47.108Z,28.30
2018-04-02T13:26:14.704Z,25.07
2018-04-02T13:28:46.742Z,21.40
2018-04-02T13:31:14.306Z,22.77
2018-04-02T13:33:42.107Z,21.57
2018-04-02T13:36:10.419Z,22.07
2018-04-02T13:38:38.003Z,21.17
2018-04-02T13:41:05.994Z,19.17
2018-04-02T13:43:33.629Z,18.83
2018-04-02T13:48:05.537Z,18.57
2018-04-02T13:50:33.041Z,19.40
2018-04-02T13:53:04.651Z,18.03
2018-04-02T13:55:33.124Z,17.83
2018-04-02T13:58:01.573Z,18.87
2018-04-02T14:00:29.103Z,17.40
2018-04-02T14:02:56.631Z,18.27
2018-04-02T14:05:24.215Z,19.20
2018-04-02T14:07:52.504Z,18.90
2018-04-02T14:10:20.051Z,18.37
2018-04-02T14:12:48.367Z,20.37
2018-04-02T14:15:15.906Z,21.10
2018-04-02T14:17:43.445Z,21.43
2018-04-02T14:20:11.875Z,20.73
2018-04-02T14:22:43.436Z,21.67
2018-04-02T14:25:15.054Z,20.73
2018-04-02T14:27:42.993Z,19.33
2018-04-02T14:30:12.017Z,20.77
2018-04-02T14:32:40.069Z,22.47
2018-04-02T14:35:08.361Z,23.83
2018-04-02T14:37:35.909Z,20.77
2018-04-02T14:40:04.198Z,21.83
2018-04-02T14:42:32.178Z,20.83
2018-04-02T14:44:59.758Z,21.30
2018-04-02T14:47:27.308Z,20.27
2018-04-02T14:49:58.923Z,19.80
2018-04-02T14:52:27.250Z,19.53
2018-04-02T14:54:54.777Z,19.03
2018-04-02T14:57:22.315Z,20.63
2018-04-02T14:59:50.626Z,19.03
2018-04-02T15:02:18.836Z,18.93
2018-04-02T15:04:46.399Z,18.33
2018-04-02T15:07:13.952Z,18.97
2018-04-02T15:09:41.491Z,18.00
2018-04-02T15:12:09.034Z,18.80
2018-04-02T15:14:36.576Z,19.13
2018-04-02T15:17:05.873Z,18.53
2018-04-02T15:19:34.185Z,17.10
2018-04-02T15:22:01.710Z,17.37
2018-04-02T15:24:30.016Z,17.83
2018-04-02T15:26:57.545Z,20.33
2018-04-02T15:29:25.850Z,19.57
2018-04-02T15:31:53.386Z,15.80
2018-04-02T15:34:22.287Z,16.57
2018-04-02T15:36:49.850Z,19.00
2018-04-02T15:39:17.370Z,16.10
2018-04-02T15:41:44.892Z,15.67
2018-04-02T15:44:12.455Z,15.00
2018-04-02T15:46:40.007Z,15.33
2018-04-02T15:49:07.562Z,15.73
2018-04-02T15:51:35.106Z,14.70
2018-04-02T15:54:02.683Z,15.33
2018-04-02T15:56:30.244Z,14.90
2018-04-02T15:58:57.882Z,14.43
2018-04-02T16:01:26.206Z,16.77
2018-04-02T16:03:53.752Z,17.23
2018-04-02T16:06:21.302Z,16.20
2018-04-02T16:11:23.688Z,15.30
2018-04-02T16:13:51.962Z,15.50
2018-04-02T16:16:19.571Z,14.60
2018-04-02T16:18:50.422Z,14.67
2018-04-02T16:21:18.037Z,15.57
2018-04-02T16:23:45.608Z,15.33
2018-04-02T16:26:13.436Z,14.43
2018-04-02T16:28:43.241Z,15.83
2018-04-02T16:31:11.570Z,15.63
2018-04-02T16:33:40.390Z,14.20
2018-04-02T16:36:07.895Z,15.97
2018-04-02T16:38:35.424Z,14.50
2018-04-02T16:41:03.845Z,15.80
2018-04-02T16:43:31.414Z,15.77
2018-04-02T16:45:58.944Z,14.87
2018-04-02T16:48:26.479Z,16.63
2018-04-02T16:50:54.884Z,15.20
2018-04-02T16:53:22.778Z,15.83
2018-04-02T16:55:50.329Z,15.90
2018-04-02T16:58:17.862Z,18.00
2018-04-02T17:00:46.167Z,17.00
2018-04-02T17:03:13.702Z,16.03
2018-04-02T17:05:41.995Z,16.33
2018-04-02T17:08:09.522Z,16.10
2018-04-02T17:10:37.820Z,15.03
2018-04-02T17:13:05.405Z,15.60
2018-04-02T17:15:33.784Z,15.73
2018-04-02T17:18:01.391Z,14.43
2018-04-02T17:20:29.006Z,16.90
2018-04-02T17:22:56.584Z,18.73
2018-04-02T17:25:24.388Z,21.90
2018-04-02T17:27:52.714Z,23.37
2018-04-02T17:30:20.292Z,24.47
2018-04-02T17:32:47.869Z,26.47
2018-04-02T17:35:16.186Z,31.30
2018-04-02T17:37:43.725Z,26.23
2018-04-02T17:40:12.041Z,25.70
2018-04-02T17:42:39.582Z,26.77
2018-04-02T17:45:07.123Z,26.53
2018-04-02T17:47:35.428Z,26.57
2018-04-02T17:50:03.869Z,26.33
2018-04-02T17:52:31.460Z,26.53
2018-04-02T17:54:59.004Z,25.67
2018-04-02T17:57:27.342Z,26.23
2018-04-02T17:59:54.885Z,25.80
2018-04-02T18:02:22.410Z,26.00
2018-04-02T18:04:50.746Z,25.33
2018-04-02T18:07:18.283Z,24.90
2018-04-02T18:09:45.810Z,25.03
2018-04-02T18:12:14.126Z,25.33
2018-04-02T18:14:41.664Z,26.73
2018-04-02T18:17:09.224Z,26.17
2018-04-02T18:19:36.843Z,26.33
2018-04-02T18:22:04.923Z,26.83
2018-04-02T18:24:33.266Z,26.47
2018-04-02T18:27:01.531Z,26.20
2018-04-02T18:29:29.065Z,26.17
2018-04-02T18:31:56.611Z,27.50
2018-04-02T18:34:24.898Z,26.70
2018-04-02T18:36:52.449Z,28.03
2018-04-02T18:39:20.747Z,27.67
2018-04-02T18:54:48.326Z,28.00
2018-04-02T18:57:19.532Z,28.63
2018-04-02T18:59:47.071Z,29.73
2018-04-02T19:02:15.449Z,29.27
2018-04-02T19:04:43.776Z,29.70
2018-04-02T19:07:11.338Z,28.50
2018-04-02T19:09:38.883Z,30.33
2018-04-02T19:12:07.013Z,31.40
2018-04-02T19:14:34.576Z,28.83
2018-04-02T19:17:02.886Z,29.73
2018-04-02T19:19:30.441Z,30.37
2018-04-02T19:21:58.627Z,28.87
2018-04-02T19:24:26.845Z,28.33
2018-04-02T19:26:55.907Z,29.13
2018-04-02T19:29:27.794Z,29.07
2018-04-02T19:31:55.324Z,28.20
2018-04-02T19:34:22.889Z,28.17
2018-04-02T19:36:50.451Z,28.57
2018-04-02T19:39:18.038Z,27.17
2018-04-02T19:41:45.607Z,27.40
2018-04-02T19:44:13.139Z,30.17
2018-04-02T19:46:40.697Z,27.90
2018-04-02T19:49:08.249Z,27.93
2018-04-02T19:51:36.213Z,28.00
2018-04-02T19:54:03.829Z,27.77
2018-04-02T19:56:31.945Z,27.03
2018-04-02T19:58:59.494Z,26.47
2018-04-02T20:01:27.027Z,26.80
2018-04-02T20:03:55.437Z,26.37
2018-04-02T20:06:23.110Z,27.33
2018-04-02T20:08:50.689Z,28.50
2018-04-02T20:11:19.182Z,28.93
2018-04-02T20:13:47.852Z,28.83
2018-04-02T20:16:15.473Z,29.57
2018-04-02T20:18:43.781Z,28.43
2018-04-02T20:21:11.331Z,28.30
2018-04-02T20:23:38.874Z,27.30
2018-04-02T20:26:07.214Z,27.60
2018-04-02T20:28:38.607Z,28.10
2018-04-02T20:31:06.150Z,30.07
2018-04-02T20:33:34.461Z,26.47
2018-04-02T20:36:02.016Z,26.77
2018-04-02T20:38:29.551Z,25.70
2018-04-02T20:40:57.878Z,24.60
2018-04-02T20:43:25.404Z,21.10
2018-04-02T20:45:52.996Z,19.73
2018-04-02T20:48:21.204Z,19.30
2018-04-02T20:50:49.530Z,18.60
2018-04-02T20:53:17.129Z,17.50
2018-04-02T20:55:44.734Z,16.80
2018-04-02T20:58:12.298Z,14.93
2018-04-02T21:00:39.862Z,14.50
2018-04-02T21:03:07.419Z,14.50
2018-04-02T21:05:34.964Z,13.80
2018-04-02T21:08:03.257Z,12.93
2018-04-02T21:10:30.808Z,14.00
2018-04-02T21:12:58.359Z,12.33
2018-04-02T21:15:27.545Z,12.77
2018-04-02T21:17:55.909Z,16.50
2018-04-02T21:20:24.018Z,12.23
2018-04-02T21:22:52.371Z,12.33
2018-04-02T21:25:19.929Z,11.50
2018-04-02T21:27:47.440Z,11.77
2018-04-02T21:30:14.997Z,11.50
2018-04-02T21:32:42.504Z,11.97
2018-04-02T21:35:10.038Z,12.27
2018-04-02T21:37:38.162Z,11.87
2018-04-02T21:40:06.459Z,12.30
2018-04-02T21:42:34.002Z,11.80
2018-04-02T21:45:01.549Z,12.10
2018-04-02T21:47:29.909Z,10.67
2018-04-02T21:49:57.397Z,10.37
2018-04-02T21:52:25.870Z,8.53
2018-04-02T21:54:54.151Z,7.37
2018-04-02T21:57:22.432Z,6.57
2018-04-02T21:59:54.948Z,6.10
2018-04-02T22:02:22.467Z,6.27
2018-04-02T22:04:50.760Z,5.67
2018-04-02T22:07:20.897Z,6.47
2018-04-02T22:09:48.426Z,6.23
2018-04-02T22:12:17.667Z,5.90
2018-04-02T22:14:45.208Z,5.77
2018-04-02T22:17:12.741Z,5.33
2018-04-02T22:19:41.056Z,5.87
2018-04-02T22:22:08.582Z,5.20
2018-04-02T22:24:36.141Z,5.57
2018-04-02T22:27:04.441Z,6.00
2018-04-02T22:29:31.961Z,5.80
2018-04-02T22:32:00.292Z,6.20
2018-04-02T22:34:27.814Z,6.27
2018-04-02T22:36:56.103Z,5.60
2018-04-02T22:39:23.625Z,5.80
2018-04-02T22:41:51.207Z,6.00
2018-04-02T22:44:19.477Z,5.57
2018-04-02T22:46:47.036Z,5.80
2018-04-02T22:59:00.354Z,5.33
2018-04-02T23:01:27.857Z,5.97
2018-04-02T23:03:55.662Z,5.47
2018-04-02T23:06:23.940Z,6.13
2018-04-02T23:08:52.235Z,6.30
2018-04-02T23:11:19.760Z,5.73
2018-04-02T23:13:47.293Z,6.10
2018-04-02T23:16:14.809Z,6.00
2018-04-02T23:18:42.333Z,6.20
2018-04-02T23:21:09.867Z,6.53
2018-04-02T23:23:37.365Z,6.67
2018-04-02T23:26:05.657Z,6.37
2018-04-02T23:28:34.793Z,6.77
2018-04-02T23:31:02.391Z,6.80
2018-04-02T23:33:29.974Z,6.80
2018-04-02T23:35:57.500Z,7.50
2018-04-02T23:38:25.425Z,7.27
2018-04-02T23:40:52.948Z,7.10
2018-04-02T23:43:21.247Z,6.93
2018-04-02T23:45:48.772Z,7.60
2018-04-02T23:48:16.332Z,7.63
2018-04-02T23:50:43.858Z,7.73
2018-04-02T23:53:11.399Z,8.00
2018-04-02T23:55:39.381Z,7.40
2018-04-02T23:58:06.927Z,8.00
